createdAt,value
2023-05-12T00:02:27.024Z,71.70
2023-05-12T00:04:55.201Z,71.65
2023-05-12T00:07:23.021Z,71.63
2023-05-12T00:09:50.810Z,71.94
2023-05-12T00:12:20.057Z,71.79
2023-05-12T00:14:47.990Z,71.54
2023-05-12T00:17:15.744Z,71.70
2023-05-12T00:19:44.392Z,71.35
2023-05-12T00:22:12.466Z,71.25
2023-05-12T00:24:40.818Z,71.50
2023-05-12T00:27:08.618Z,71.52
2023-05-12T00:29:37.873Z,71.68
2023-05-12T00:32:07.157Z,71.86
2023-05-12T00:34:34.939Z,71.98
2023-05-12T00:37:02.729Z,71.66
2023-05-12T00:39:30.602Z,71.83
2023-05-12T00:41:59.180Z,71.43
2023-05-12T00:44:27.040Z,71.28
2023-05-12T00:46:56.168Z,71.50
2023-05-12T00:49:26.876Z,71.28
2023-05-12T00:51:55.773Z,71.09
2023-05-12T00:54:23.934Z,70.96
2023-05-12T00:56:52.332Z,71.09
2023-05-12T00:59:20.334Z,70.89
2023-05-12T01:01:49.646Z,70.79
2023-05-12T01:04:18.931Z,70.71
2023-05-12T01:06:50.937Z,70.55
2023-05-12T01:09:19.244Z,70.75
2023-05-12T01:11:47.333Z,70.81
2023-05-12T01:14:15.085Z,70.82
2023-05-12T01:16:49.399Z,70.75
2023-05-12T01:19:33.716Z,70.56
2023-05-12T01:22:02.316Z,70.55
2023-05-12T01:24:34.266Z,70.53
2023-05-12T01:27:04.496Z,70.26
2023-05-12T01:29:33.593Z,70.32
2023-05-12T01:32:01.785Z,70.40
2023-05-12T01:34:29.591Z,70.41
2023-05-12T01:36:57.354Z,70.62
2023-05-12T01:39:25.154Z,70.38
2023-05-12T01:41:52.971Z,70.17
2023-05-12T01:44:22.125Z,70.31
2023-05-12T01:46:50.169Z,70.54
2023-05-12T01:49:17.989Z,70.28
2023-05-12T01:51:45.736Z,70.17
2023-05-12T01:54:13.522Z,70.31
2023-05-12T01:56:41.437Z,70.56
2023-05-12T01:59:09.694Z,70.45
2023-05-12T02:01:38.924Z,70.49
2023-05-12T02:04:09.256Z,70.46
2023-05-12T02:06:37.431Z,70.56
2023-05-12T02:09:05.523Z,70.52
2023-05-12T02:11:33.358Z,70.49
2023-05-12T02:14:01.128Z,70.56
2023-05-12T02:16:28.992Z,70.61
2023-05-12T02:18:58.292Z,70.71
2023-05-12T02:21:26.297Z,70.88
2023-05-12T02:23:54.140Z,70.84
2023-05-12T02:26:22.091Z,70.72
2023-05-12T02:28:49.899Z,70.98
2023-05-12T02:31:17.741Z,70.44
2023-05-12T02:33:45.483Z,70.88
2023-05-12T02:36:14.633Z,70.77
2023-05-12T02:38:42.496Z,70.57
2023-05-12T02:41:10.372Z,70.69
2023-05-12T02:43:38.169Z,70.76
2023-05-12T02:46:06.095Z,70.79
2023-05-12T02:48:33.960Z,70.92
2023-05-12T02:51:01.778Z,70.54
2023-05-12T02:53:31.086Z,70.81
2023-05-12T02:55:59.055Z,70.75
2023-05-12T02:58:26.976Z,71.00
2023-05-12T03:01:06.794Z,70.70
2023-05-12T03:03:38.633Z,70.91
2023-05-12T03:06:07.222Z,70.87
2023-05-12T03:08:36.624Z,70.80
2023-05-12T03:11:04.528Z,70.95
2023-05-12T03:13:32.316Z,70.99
2023-05-12T03:16:01.686Z,70.99
2023-05-12T03:18:29.995Z,70.73
2023-05-12T03:20:57.957Z,70.79
2023-05-12T03:23:25.769Z,71.15
2023-05-12T03:25:55.476Z,71.02
2023-05-12T03:28:24.850Z,71.07
2023-05-12T03:30:52.665Z,71.10
2023-05-12T03:33:20.496Z,70.83
2023-05-12T03:35:48.319Z,71.05
2023-05-12T03:38:16.093Z,70.98
2023-05-12T03:40:43.884Z,70.75
2023-05-12T03:43:13.038Z,70.92
2023-05-12T03:45:40.890Z,71.24
2023-05-12T03:48:08.850Z,70.92
2023-05-12T03:50:36.744Z,70.99
2023-05-12T03:53:04.539Z,71.13
2023-05-12T03:55:32.321Z,71.30
2023-05-12T03:58:00.224Z,71.05
2023-05-12T04:00:29.529Z,70.93
2023-05-12T04:02:57.404Z,71.24
2023-05-12T04:05:25.365Z,71.25
2023-05-12T04:07:53.320Z,70.87
2023-05-12T04:10:21.551Z,71.05
2023-05-12T04:12:49.440Z,71.46
2023-05-12T04:15:17.653Z,71.56
2023-05-12T04:17:46.858Z,71.58
2023-05-12T04:20:14.672Z,71.40
2023-05-12T04:22:42.427Z,71.50
2023-05-12T04:25:11.050Z,71.58
2023-05-12T04:27:38.984Z,71.31
2023-05-12T04:30:08.186Z,71.32
2023-05-12T04:32:36.376Z,71.62
2023-05-12T04:35:06.201Z,71.79
2023-05-12T04:37:34.482Z,71.79
2023-05-12T04:40:02.558Z,71.58
2023-05-12T04:42:30.487Z,71.77
2023-05-12T04:44:58.282Z,71.50
2023-05-12T04:47:26.097Z,71.64
2023-05-12T04:49:53.877Z,71.57
2023-05-12T04:52:24.778Z,71.87
2023-05-12T04:54:53.370Z,71.79
2023-05-12T04:57:24.158Z,71.71
2023-05-12T04:59:51.943Z,71.96
2023-05-12T05:02:19.778Z,72.06
2023-05-12T05:04:47.607Z,72.01
2023-05-12T05:07:15.403Z,71.79
2023-05-12T05:09:44.521Z,71.99
2023-05-12T05:12:12.379Z,71.84
2023-05-12T05:14:40.168Z,71.91
2023-05-12T05:17:08.168Z,72.13
2023-05-12T05:19:49.760Z,72.33
2023-05-12T05:22:22.529Z,72.23
2023-05-12T05:24:51.985Z,72.31
2023-05-12T05:27:20.000Z,72.47
2023-05-12T05:29:47.791Z,72.58
2023-05-12T05:32:15.815Z,72.78
2023-05-12T05:34:43.665Z,72.55
2023-05-12T05:37:11.625Z,72.80
2023-05-12T05:39:39.448Z,72.88
2023-05-12T05:42:08.804Z,72.45
2023-05-12T05:44:36.595Z,72.63
2023-05-12T05:47:04.461Z,72.37
2023-05-12T05:49:32.369Z,73.02
2023-05-12T05:52:00.210Z,72.81
2023-05-12T05:54:28.004Z,73.00
2023-05-12T05:56:56.043Z,72.93
2023-05-12T05:59:25.513Z,72.90
2023-05-12T06:01:53.503Z,73.36
2023-05-12T06:04:21.368Z,73.04
2023-05-12T06:06:49.454Z,73.33
2023-05-12T06:09:17.333Z,73.59
2023-05-12T06:11:45.076Z,73.19
2023-05-12T06:14:12.868Z,73.56
2023-05-12T06:16:42.138Z,73.76
2023-05-12T06:19:10.603Z,73.66
2023-05-12T06:21:38.688Z,73.39
2023-05-12T06:24:06.840Z,73.96
2023-05-12T06:26:34.759Z,73.69
2023-05-12T06:29:02.610Z,73.98
2023-05-12T06:31:30.499Z,73.75
2023-05-12T06:33:59.765Z,73.55
2023-05-12T06:36:28.860Z,73.85
2023-05-12T06:38:56.743Z,73.85
2023-05-12T06:41:25.342Z,73.87
2023-05-12T06:43:53.463Z,73.82
2023-05-12T06:46:21.266Z,74.18
2023-05-12T06:48:49.167Z,74.13
2023-05-12T06:51:18.595Z,74.45
2023-05-12T06:53:46.402Z,74.30
2023-05-12T06:56:16.968Z,74.69
2023-05-12T06:58:44.846Z,74.12
2023-05-12T07:01:12.864Z,73.92
2023-05-12T07:03:40.684Z,74.40
2023-05-12T07:06:08.860Z,74.14
2023-05-12T07:08:37.970Z,74.16
2023-05-12T07:11:05.810Z,74.24
2023-05-12T07:13:33.626Z,74.39
2023-05-12T07:16:01.570Z,74.25
2023-05-12T07:18:29.348Z,74.40
2023-05-12T07:20:57.437Z,74.14
2023-05-12T07:23:25.276Z,74.07
2023-05-12T07:25:54.426Z,74.47
2023-05-12T07:28:22.225Z,73.84
2023-05-12T07:30:50.142Z,73.94
2023-05-12T07:33:17.974Z,73.30
2023-05-12T07:35:47.001Z,73.49
2023-05-12T07:38:15.458Z,72.89
2023-05-12T07:40:43.252Z,72.98
2023-05-12T07:43:12.411Z,73.51
2023-05-12T07:45:40.326Z,73.13
2023-05-12T07:48:08.142Z,73.17
2023-05-12T07:50:36.140Z,73.10
2023-05-12T07:53:04.425Z,73.15
2023-05-12T07:55:33.452Z,73.39
2023-05-12T07:58:01.375Z,73.33
2023-05-12T08:00:30.581Z,73.02
2023-05-12T08:02:58.763Z,73.30
2023-05-12T08:05:26.852Z,73.10
2023-05-12T08:07:54.671Z,73.22
2023-05-12T08:10:26.675Z,73.09
2023-05-12T08:12:54.631Z,73.25
2023-05-12T08:15:22.670Z,72.67
2023-05-12T08:17:52.095Z,72.71
2023-05-12T08:20:20.333Z,72.84
2023-05-12T08:22:48.377Z,72.90
2023-05-12T08:25:16.221Z,72.86
2023-05-12T08:27:44.013Z,72.57
2023-05-12T08:30:12.806Z,72.66
2023-05-12T08:32:40.833Z,72.66
2023-05-12T08:35:10.180Z,72.81
2023-05-12T08:37:38.022Z,72.74
2023-05-12T08:40:14.895Z,72.64
2023-05-12T08:42:45.117Z,72.91
2023-05-12T08:45:13.120Z,72.56
2023-05-12T08:47:42.759Z,72.50
2023-05-12T08:50:15.229Z,72.67
2023-05-12T08:52:43.055Z,72.76
2023-05-12T08:55:11.852Z,72.74
2023-05-12T08:57:40.056Z,72.60
2023-05-12T09:00:10.024Z,72.59
2023-05-12T09:02:51.989Z,72.34
2023-05-12T09:05:24.231Z,71.94
2023-05-12T09:07:54.872Z,72.17
2023-05-12T09:10:34.251Z,72.10
2023-05-12T09:13:05.740Z,72.04
2023-05-12T09:15:38.490Z,72.07
2023-05-12T09:18:06.561Z,72.25
2023-05-12T09:20:36.460Z,71.84
2023-05-12T09:23:14.806Z,71.74
2023-05-12T09:25:44.140Z,71.65
2023-05-12T09:28:12.942Z,71.52
2023-05-12T09:30:42.499Z,71.57
2023-05-12T09:33:11.771Z,71.55
2023-05-12T09:35:45.627Z,71.54
2023-05-12T09:38:15.151Z,71.52
2023-05-12T09:40:43.468Z,70.79
2023-05-12T09:43:15.148Z,70.90
2023-05-12T09:45:44.199Z,71.11
2023-05-12T09:48:14.277Z,71.02
2023-05-12T09:50:48.852Z,70.59
2023-05-12T09:53:19.412Z,70.99
2023-05-12T09:55:48.575Z,70.62
2023-05-12T09:58:18.259Z,70.97
2023-05-12T10:03:21.832Z,70.83
2023-05-12T10:05:55.515Z,70.84
2023-05-12T10:08:28.365Z,71.00
2023-05-12T10:10:57.700Z,70.81
2023-05-12T10:13:26.307Z,70.97
2023-05-12T10:15:57.198Z,70.90
2023-05-12T10:18:25.373Z,70.67
2023-05-12T10:20:55.294Z,70.97
2023-05-12T10:23:24.518Z,70.76
2023-05-12T10:25:54.272Z,70.60
2023-05-12T10:28:22.563Z,70.49
2023-05-12T10:30:52.179Z,70.23
2023-05-12T10:33:20.042Z,70.15
2023-05-12T10:35:49.462Z,70.13
2023-05-12T10:38:20.016Z,70.20
2023-05-12T10:40:55.901Z,69.95
2023-05-12T10:43:24.938Z,70.21
2023-05-12T10:46:12.046Z,70.46
2023-05-12T10:48:50.725Z,70.76
2023-05-12T10:51:21.848Z,70.89
2023-05-12T10:53:55.087Z,70.84
2023-05-12T10:56:24.645Z,71.35
2023-05-12T10:59:17.225Z,70.77
2023-05-12T11:02:03.971Z,71.19
2023-05-12T11:04:43.049Z,70.81
2023-05-12T11:07:13.777Z,71.03
2023-05-12T11:09:53.755Z,71.38
2023-05-12T11:12:27.602Z,70.97
2023-05-12T11:14:55.558Z,70.44
2023-05-12T11:17:23.471Z,70.72
2023-05-12T11:19:52.737Z,70.77
2023-05-12T11:22:22.126Z,70.75
2023-05-12T11:24:53.117Z,70.23
2023-05-12T11:27:23.518Z,70.72
2023-05-12T11:29:58.934Z,70.33
2023-05-12T11:32:26.880Z,70.73
2023-05-12T11:34:54.857Z,70.82
2023-05-12T11:37:23.597Z,69.94
2023-05-12T11:39:53.777Z,70.55
2023-05-12T11:42:25.060Z,70.40
2023-05-12T11:44:55.541Z,70.52
2023-05-12T11:47:23.454Z,70.11
2023-05-12T11:49:52.507Z,69.60
2023-05-12T11:52:22.169Z,70.19
2023-05-12T11:54:51.628Z,69.63
2023-05-12T11:57:28.353Z,69.43
2023-05-12T12:00:00.369Z,68.68
2023-05-12T12:02:28.869Z,69.00
2023-05-12T12:04:57.061Z,69.56
2023-05-12T12:07:32.676Z,68.55
2023-05-12T12:10:01.905Z,68.48
2023-05-12T12:12:31.131Z,69.42
2023-05-12T12:15:00.281Z,69.60
2023-05-12T12:17:30.920Z,69.51
2023-05-12T12:19:59.216Z,69.75
2023-05-12T12:22:27.288Z,69.82
2023-05-12T12:24:55.238Z,68.79
2023-05-12T12:27:23.006Z,69.39
2023-05-12T12:29:52.175Z,64.68
2023-05-12T12:32:19.994Z,65.75
2023-05-12T12:34:49.145Z,66.63
2023-05-12T12:37:17.390Z,67.57
2023-05-12T12:39:45.435Z,68.27
2023-05-12T12:42:13.410Z,68.74
2023-05-12T12:44:41.259Z,68.26
2023-05-12T12:47:10.631Z,68.59
2023-05-12T12:49:38.541Z,68.41
2023-05-12T12:52:07.252Z,68.17
2023-05-12T12:54:35.570Z,69.00
2023-05-12T12:57:04.174Z,68.48
2023-05-12T12:59:32.295Z,69.02
2023-05-12T13:02:01.500Z,68.84
2023-05-12T13:04:30.708Z,69.06
2023-05-12T13:06:58.559Z,66.56
2023-05-12T13:09:26.320Z,66.01
2023-05-12T13:11:54.154Z,65.45
2023-05-12T13:14:21.973Z,63.31
2023-05-12T13:16:49.905Z,66.46
2023-05-12T13:19:17.705Z,66.48
2023-05-12T13:21:46.944Z,64.25
2023-05-12T13:24:14.760Z,64.25
2023-05-12T13:26:42.497Z,65.25
2023-05-12T13:29:10.318Z,66.64
2023-05-12T13:31:38.803Z,67.25
2023-05-12T13:34:06.600Z,67.00
2023-05-12T13:36:34.770Z,63.24
2023-05-12T13:39:04.027Z,64.20
2023-05-12T13:41:31.827Z,66.00
2023-05-12T13:43:59.686Z,65.37
2023-05-12T13:46:27.688Z,65.55
2023-05-12T13:48:55.503Z,63.98
2023-05-12T13:51:23.942Z,63.91
2023-05-12T13:53:51.737Z,64.40
2023-05-12T13:56:21.182Z,64.83
2023-05-12T13:58:49.142Z,63.13
2023-05-12T14:01:17.088Z,62.11
2023-05-12T14:03:45.641Z,62.28
2023-05-12T14:06:13.570Z,61.77
2023-05-12T14:08:41.886Z,61.35
2023-05-12T14:11:10.093Z,60.97
2023-05-12T14:13:39.406Z,62.94
2023-05-12T14:16:08.028Z,64.21
2023-05-12T14:18:36.143Z,64.96
2023-05-12T14:21:04.255Z,62.29
2023-05-12T14:23:32.145Z,64.89
2023-05-12T14:25:59.984Z,66.10
2023-05-12T14:28:28.980Z,66.00
2023-05-12T14:30:58.312Z,66.45
2023-05-12T14:33:26.152Z,66.91
2023-05-12T14:36:05.925Z,67.04
2023-05-12T14:38:35.756Z,65.90
2023-05-12T14:41:04.016Z,66.50
2023-05-12T14:43:31.890Z,64.71
2023-05-12T14:46:02.475Z,65.06
2023-05-12T14:48:30.454Z,65.14
2023-05-12T14:50:58.790Z,65.20
2023-05-12T14:53:26.734Z,64.79
2023-05-12T14:55:54.515Z,64.06
2023-05-12T14:58:24.376Z,63.49
2023-05-12T15:00:52.496Z,62.48
2023-05-12T15:03:21.903Z,62.13
2023-05-12T15:08:21.583Z,61.91
2023-05-12T15:10:50.047Z,61.63
2023-05-12T15:13:20.230Z,61.77
2023-05-12T15:15:48.304Z,61.11
2023-05-12T15:18:16.369Z,61.92
2023-05-12T15:20:46.010Z,62.14
2023-05-12T15:23:13.851Z,61.65
2023-05-12T15:25:41.997Z,59.76
2023-05-12T15:28:09.808Z,60.54
2023-05-12T15:30:37.631Z,60.03
2023-05-12T15:33:06.214Z,60.61
2023-05-12T15:35:34.772Z,61.17
2023-05-12T15:38:04.074Z,57.76
2023-05-12T15:40:31.869Z,58.77
2023-05-12T15:42:59.665Z,58.93
2023-05-12T15:45:27.892Z,58.50
2023-05-12T15:47:56.825Z,58.32
2023-05-12T15:50:24.898Z,57.42
2023-05-12T15:52:52.722Z,57.48
2023-05-12T15:55:22.296Z,57.87
2023-05-12T15:57:50.999Z,59.47
2023-05-12T16:00:20.786Z,59.66
2023-05-12T16:02:49.817Z,61.18
2023-05-12T16:05:18.009Z,60.70
2023-05-12T16:07:45.930Z,60.53
2023-05-12T16:10:13.742Z,60.52
2023-05-12T16:12:42.905Z,60.12
2023-05-12T16:15:11.960Z,60.15
2023-05-12T16:17:39.731Z,60.32
2023-05-12T16:20:09.197Z,60.22
2023-05-12T16:22:37.700Z,61.26
2023-05-12T16:25:06.361Z,61.33
2023-05-12T16:27:35.690Z,61.70
2023-05-12T16:30:05.900Z,62.71
2023-05-12T16:32:33.877Z,61.98
2023-05-12T16:35:01.673Z,61.13
2023-05-12T16:37:29.468Z,60.13
2023-05-12T16:39:57.258Z,60.61
2023-05-12T16:42:25.531Z,61.43
2023-05-12T16:44:54.560Z,60.97
2023-05-12T16:47:24.021Z,61.30
2023-05-12T16:49:53.223Z,60.65
2023-05-12T16:52:21.119Z,60.47
2023-05-12T16:54:48.924Z,59.84
2023-05-12T16:57:16.701Z,60.05
2023-05-12T16:59:44.520Z,60.02
2023-05-12T17:02:12.423Z,60.00
2023-05-12T17:04:41.577Z,59.97
2023-05-12T17:07:09.706Z,59.66
2023-05-12T17:09:37.906Z,60.14
2023-05-12T17:12:06.922Z,59.75
2023-05-12T17:14:35.250Z,59.84
2023-05-12T17:17:03.397Z,59.94
2023-05-12T17:19:31.247Z,60.60
2023-05-12T17:22:00.514Z,60.84
2023-05-12T17:24:29.110Z,60.93
2023-05-12T17:26:57.642Z,61.24
2023-05-12T17:29:25.450Z,61.28
2023-05-12T17:31:53.684Z,61.03
2023-05-12T17:34:21.488Z,61.08
2023-05-12T17:36:49.276Z,61.18
2023-05-12T17:39:18.461Z,61.24
2023-05-12T17:41:47.232Z,61.14
2023-05-12T17:44:15.453Z,61.25
2023-05-12T17:46:43.421Z,61.40
2023-05-12T17:49:11.282Z,61.38
2023-05-12T17:51:39.222Z,61.51
2023-05-12T17:54:07.126Z,61.83
2023-05-12T17:56:36.538Z,61.69
2023-05-12T17:59:04.365Z,61.74
2023-05-12T18:01:32.183Z,61.86
2023-05-12T18:03:59.965Z,62.08
2023-05-12T18:06:27.842Z,61.86
2023-05-12T18:08:56.569Z,62.17
2023-05-12T18:11:24.408Z,62.42
2023-05-12T18:13:53.795Z,62.23
2023-05-12T18:16:28.335Z,62.31
2023-05-12T18:18:56.723Z,62.19
2023-05-12T18:21:24.856Z,62.05
2023-05-12T18:23:52.799Z,61.99
2023-05-12T18:26:20.801Z,61.88
2023-05-12T18:28:48.729Z,62.01
2023-05-12T18:31:19.674Z,61.67
2023-05-12T18:33:47.843Z,61.53
2023-05-12T18:36:15.752Z,61.66
2023-05-12T18:38:43.655Z,61.77
2023-05-12T18:41:12.759Z,61.84
2023-05-12T18:43:41.867Z,62.02
2023-05-12T18:46:09.887Z,61.74
2023-05-12T18:48:39.099Z,62.10
2023-05-12T18:51:07.120Z,61.88
2023-05-12T18:53:35.228Z,61.83
2023-05-12T18:56:03.535Z,61.78
2023-05-12T18:58:31.312Z,61.87
2023-05-12T19:00:59.293Z,61.85
2023-05-12T19:03:27.325Z,62.54
2023-05-12T19:05:56.503Z,62.27
2023-05-12T19:08:24.281Z,62.20
2023-05-12T19:10:52.116Z,62.32
2023-05-12T19:13:20.170Z,62.34
2023-05-12T19:15:48.099Z,62.37
2023-05-12T19:18:17.217Z,62.40
2023-05-12T19:20:45.091Z,62.41
2023-05-12T19:23:14.328Z,62.47
2023-05-12T19:25:43.551Z,62.49
2023-05-12T19:28:11.970Z,62.40
2023-05-12T19:30:39.805Z,62.41
2023-05-12T19:33:07.802Z,62.57
2023-05-12T19:35:36.228Z,62.38
2023-05-12T19:38:04.282Z,62.51
2023-05-12T19:40:33.543Z,62.42
2023-05-12T19:43:01.979Z,62.21
2023-05-12T19:45:30.084Z,62.47
2023-05-12T19:47:58.235Z,62.57
2023-05-12T19:50:26.410Z,62.70
2023-05-12T19:52:54.252Z,62.57
2023-05-12T19:55:22.366Z,62.50
2023-05-12T19:57:52.783Z,62.62
2023-05-12T20:00:22.176Z,62.80
2023-05-12T20:02:50.451Z,62.82
2023-05-12T20:05:18.577Z,62.86
2023-05-12T20:07:46.391Z,62.86
2023-05-12T20:10:14.154Z,62.93
2023-05-12T20:12:42.123Z,62.89
2023-05-12T20:15:12.352Z,63.01
2023-05-12T20:17:40.156Z,63.16
2023-05-12T20:20:11.405Z,63.11
2023-05-12T20:22:39.288Z,63.13
2023-05-12T20:25:07.853Z,63.30
2023-05-12T20:27:35.630Z,63.30
2023-05-12T20:30:03.467Z,63.36
2023-05-12T20:32:33.470Z,63.23
2023-05-12T20:35:01.469Z,63.42
2023-05-12T20:37:29.257Z,63.36
2023-05-12T20:39:57.094Z,63.28
2023-05-12T20:42:24.948Z,63.36
2023-05-12T20:44:53.785Z,63.39
2023-05-12T20:47:21.605Z,63.34
2023-05-12T20:49:56.015Z,63.19
2023-05-12T20:52:24.726Z,63.14
2023-05-12T20:54:57.932Z,63.17
2023-05-12T20:57:25.762Z,62.84
2023-05-12T20:59:56.706Z,62.99
2023-05-12T21:02:25.128Z,62.87
2023-05-12T21:04:55.217Z,62.88
2023-05-12T21:07:23.179Z,62.92
2023-05-12T21:09:51.015Z,62.63
2023-05-12T21:12:18.771Z,63.01
2023-05-12T21:14:46.590Z,62.87
2023-05-12T21:17:14.825Z,62.83
2023-05-12T21:19:44.020Z,62.68
2023-05-12T21:22:13.267Z,62.67
2023-05-12T21:24:42.035Z,62.65
2023-05-12T21:27:10.017Z,62.79
2023-05-12T21:29:38.189Z,62.73
2023-05-12T21:32:06.883Z,62.77
2023-05-12T21:34:36.111Z,62.77
2023-05-12T21:37:04.084Z,62.82
2023-05-12T21:39:33.215Z,62.77
2023-05-12T21:42:01.115Z,62.82
2023-05-12T21:44:28.866Z,62.83
2023-05-12T21:46:58.618Z,62.96
2023-05-12T21:49:26.874Z,62.92
2023-05-12T21:51:55.987Z,62.98
2023-05-12T21:54:23.808Z,62.80
2023-05-12T21:56:53.184Z,62.87
2023-05-12T21:59:20.948Z,63.02
2023-05-12T22:01:48.834Z,62.80
2023-05-12T22:04:16.706Z,62.86
2023-05-12T22:06:44.555Z,62.99
2023-05-12T22:09:12.830Z,62.87
2023-05-12T22:11:40.804Z,62.85
2023-05-12T22:14:10.249Z,62.84
2023-05-12T22:16:41.836Z,62.95
2023-05-12T22:19:10.628Z,62.90
2023-05-12T22:21:38.732Z,62.90
2023-05-12T22:24:07.158Z,62.91
2023-05-12T22:26:34.993Z,63.10
2023-05-12T22:29:02.895Z,62.98
2023-05-12T22:31:32.164Z,63.04
2023-05-12T22:34:00.165Z,62.91
2023-05-12T22:36:27.986Z,62.97
2023-05-12T22:38:55.772Z,62.87
2023-05-12T22:41:23.581Z,63.10
2023-05-12T22:43:51.545Z,62.97
2023-05-12T22:46:19.384Z,63.04
2023-05-12T22:48:48.550Z,63.04
2023-05-12T22:51:16.328Z,63.05
2023-05-12T22:53:44.130Z,63.06
2023-05-12T22:56:11.921Z,63.27
2023-05-12T22:58:39.710Z,63.18
2023-05-12T23:01:07.539Z,63.22
2023-05-12T23:03:35.450Z,63.29
2023-05-12T23:06:04.806Z,63.28
2023-05-12T23:08:32.611Z,63.13
2023-05-12T23:11:00.672Z,63.30
2023-05-12T23:13:28.473Z,63.18
2023-05-12T23:15:56.510Z,63.04
2023-05-12T23:18:24.447Z,63.02
2023-05-12T23:20:52.326Z,62.82
2023-05-12T23:23:21.494Z,62.97
2023-05-12T23:25:49.470Z,62.96
2023-05-12T23:28:17.294Z,62.67
2023-05-12T23:30:45.087Z,62.70
2023-05-12T23:33:13.037Z,62.85
2023-05-12T23:35:40.841Z,62.66
2023-05-12T23:38:08.659Z,62.52
2023-05-12T23:40:39.324Z,62.64
2023-05-12T23:43:07.222Z,62.57
2023-05-12T23:45:35.491Z,62.30
2023-05-12T23:48:03.350Z,62.33
2023-05-12T23:50:31.166Z,62.01
2023-05-12T23:52:59.213Z,62.09
2023-05-12T23:55:27.008Z,62.08
2023-05-12T23:57:56.130Z,62.13
